createdAt,value
2018-12-22T00:00:54.087Z,7.73
2018-12-22T00:03:21.600Z,8.60
2018-12-22T00:05:49.119Z,7.57
2018-12-22T00:08:16.631Z,6.40
2018-12-22T00:10:44.141Z,8.20
2018-12-22T00:13:11.649Z,8.87
2018-12-22T00:15:39.163Z,6.97
2018-12-22T00:18:06.672Z,7.03
2018-12-22T00:20:34.178Z,7.70
2018-12-22T00:23:01.678Z,7.03
2018-12-22T00:25:29.192Z,6.93
2018-12-22T00:27:56.708Z,8.33
2018-12-22T00:30:24.219Z,7.30
2018-12-22T00:32:51.731Z,7.20
2018-12-22T00:35:19.251Z,7.53
2018-12-22T00:37:46.821Z,6.90
2018-12-22T00:40:14.383Z,7.30
2018-12-22T00:42:41.896Z,7.20
2018-12-22T00:45:09.400Z,7.10
2018-12-22T00:47:36.970Z,7.27
2018-12-22T00:50:05.417Z,6.97
2018-12-22T00:52:32.916Z,6.70
2018-12-22T00:55:00.423Z,6.17
2018-12-22T00:57:27.978Z,5.93
2018-12-22T00:59:55.483Z,5.83
2018-12-22T01:02:22.997Z,6.70
2018-12-22T01:04:50.505Z,7.70
2018-12-22T01:07:18.022Z,7.03
2018-12-22T01:09:45.573Z,5.93
2018-12-22T01:12:13.150Z,5.53
2018-12-22T01:14:40.668Z,6.20
2018-12-22T01:17:08.170Z,6.57
2018-12-22T01:19:35.682Z,5.67
2018-12-22T01:22:03.180Z,5.90
2018-12-22T01:24:30.696Z,5.90
2018-12-22T01:26:58.218Z,5.63
2018-12-22T01:29:25.726Z,5.07
2018-12-22T01:31:53.222Z,5.57
2018-12-22T01:34:20.731Z,5.47
2018-12-22T01:36:48.231Z,5.10
2018-12-22T01:39:15.736Z,4.10
2018-12-22T01:41:43.239Z,4.93
2018-12-22T01:44:10.734Z,4.43
2018-12-22T01:46:38.252Z,4.67
2018-12-22T01:49:05.755Z,3.33
2018-12-22T01:51:33.319Z,3.70
2018-12-22T01:54:00.823Z,3.00
2018-12-22T01:56:28.329Z,3.50
2018-12-22T01:58:55.855Z,3.93
2018-12-22T02:01:23.362Z,3.43
2018-12-22T02:03:50.865Z,4.20
2018-12-22T02:06:18.379Z,4.10
2018-12-22T02:08:45.889Z,3.07
2018-12-22T02:11:13.395Z,3.00
2018-12-22T02:13:40.940Z,2.80
2018-12-22T02:16:08.445Z,3.20
2018-12-22T02:18:35.947Z,3.13
2018-12-22T02:21:03.453Z,3.27
2018-12-22T02:23:30.969Z,3.63
2018-12-22T02:25:58.477Z,4.33
2018-12-22T02:28:26.005Z,5.10
2018-12-22T02:30:53.519Z,3.27
2018-12-22T02:33:21.038Z,3.77
2018-12-22T02:35:48.551Z,4.17
2018-12-22T02:38:16.070Z,4.63
2018-12-22T02:40:43.591Z,4.23
2018-12-22T02:43:11.098Z,3.97
2018-12-22T02:45:38.616Z,3.87
2018-12-22T02:48:06.146Z,4.13
2018-12-22T02:50:33.721Z,3.87
2018-12-22T02:53:01.237Z,3.53
2018-12-22T02:55:28.748Z,4.37
2018-12-22T02:57:56.273Z,3.80
2018-12-22T03:00:23.884Z,3.70
2018-12-22T03:02:51.406Z,4.33
2018-12-22T03:05:18.919Z,4.03
2018-12-22T03:07:46.459Z,3.80
2018-12-22T03:10:13.964Z,4.20
2018-12-22T03:12:41.466Z,5.23
2018-12-22T03:15:08.974Z,4.73
2018-12-22T03:17:36.480Z,4.47
2018-12-22T03:20:10.947Z,4.43
2018-12-22T03:22:38.464Z,5.93
2018-12-22T03:25:05.990Z,4.63
2018-12-22T03:27:33.506Z,4.53
2018-12-22T03:30:01.032Z,4.80
2018-12-22T03:32:28.539Z,5.00
2018-12-22T03:34:56.050Z,4.63
2018-12-22T03:37:23.561Z,4.00
2018-12-22T03:39:51.105Z,4.63
2018-12-22T03:42:18.611Z,4.43
2018-12-22T03:44:46.119Z,4.57
2018-12-22T03:47:13.628Z,4.63
2018-12-22T03:49:41.149Z,4.33
2018-12-22T03:52:08.653Z,4.70
2018-12-22T03:54:36.164Z,4.10
2018-12-22T03:57:03.669Z,4.07
2018-12-22T03:59:31.184Z,4.13
2018-12-22T04:01:58.709Z,3.57
2018-12-22T04:04:26.240Z,4.37
2018-12-22T04:06:53.781Z,4.20
2018-12-22T04:09:21.319Z,3.80
2018-12-22T04:11:48.944Z,4.07
2018-12-22T04:14:16.456Z,4.37
2018-12-22T04:16:43.996Z,4.23
2018-12-22T04:19:11.506Z,4.43
2018-12-22T04:21:39.041Z,4.10
2018-12-22T04:24:06.548Z,4.83
2018-12-22T04:26:34.059Z,4.10
2018-12-22T04:29:01.596Z,3.60
2018-12-22T04:31:29.133Z,4.73
2018-12-22T04:33:56.648Z,3.57
2018-12-22T04:36:24.154Z,4.10
2018-12-22T04:38:51.677Z,4.67
2018-12-22T04:41:19.189Z,3.90
2018-12-22T04:43:46.702Z,4.17
2018-12-22T04:46:14.226Z,3.90
2018-12-22T04:48:41.732Z,4.27
2018-12-22T04:51:09.245Z,3.70
2018-12-22T04:53:36.766Z,4.27
2018-12-22T04:56:04.274Z,4.27
2018-12-22T04:58:31.795Z,3.90
2018-12-22T05:00:59.308Z,4.40
2018-12-22T05:03:26.935Z,4.50
2018-12-22T05:05:54.512Z,3.93
2018-12-22T05:08:22.040Z,5.00
2018-12-22T05:10:49.559Z,4.37
2018-12-22T05:13:17.074Z,4.50
2018-12-22T05:15:44.599Z,4.43
2018-12-22T05:18:12.117Z,3.97
2018-12-22T05:20:39.624Z,3.67
2018-12-22T05:23:07.126Z,3.77
2018-12-22T05:25:34.696Z,3.80
2018-12-22T05:28:02.213Z,3.90
2018-12-22T05:30:29.804Z,4.63
2018-12-22T05:32:57.322Z,4.17
2018-12-22T05:35:24.852Z,4.37
2018-12-22T05:37:52.358Z,4.30
2018-12-22T05:40:19.872Z,3.83
2018-12-22T05:42:47.393Z,3.90
2018-12-22T05:45:14.966Z,4.50
2018-12-22T05:47:42.473Z,4.57
2018-12-22T05:50:09.978Z,4.23
2018-12-22T05:52:37.504Z,4.90
2018-12-22T05:55:05.068Z,4.47
2018-12-22T05:57:32.588Z,4.10
2018-12-22T06:00:00.734Z,4.57
2018-12-22T06:02:28.580Z,3.97
2018-12-22T06:04:56.082Z,4.40
2018-12-22T06:07:23.596Z,4.63
2018-12-22T06:09:51.134Z,4.50
2018-12-22T06:12:18.738Z,5.77
2018-12-22T06:14:46.256Z,4.80
2018-12-22T06:17:13.754Z,4.07
2018-12-22T06:19:41.266Z,4.87
2018-12-22T06:22:08.784Z,4.43
2018-12-22T06:24:36.291Z,5.53
2018-12-22T06:27:03.791Z,4.87
2018-12-22T06:29:31.294Z,4.97
2018-12-22T06:31:58.822Z,5.67
2018-12-22T06:34:26.361Z,4.73
2018-12-22T06:36:53.869Z,5.00
2018-12-22T06:39:21.375Z,4.77
2018-12-22T06:41:48.877Z,4.10
2018-12-22T06:44:16.385Z,5.70
2018-12-22T06:46:43.971Z,4.60
2018-12-22T06:49:11.707Z,4.63
2018-12-22T06:51:41.103Z,4.03
2018-12-22T06:54:09.413Z,4.30
2018-12-22T06:56:36.913Z,4.37
2018-12-22T06:59:04.429Z,4.67
2018-12-22T07:01:31.943Z,4.37
2018-12-22T07:03:59.455Z,4.57
2018-12-22T07:06:26.964Z,4.33
2018-12-22T07:08:54.571Z,4.07
2018-12-22T07:11:22.246Z,4.00
2018-12-22T07:13:49.886Z,4.23
2018-12-22T07:16:17.385Z,3.97
2018-12-22T07:18:45.140Z,4.97
2018-12-22T07:21:12.647Z,4.30
2018-12-22T07:23:40.239Z,4.00
2018-12-22T07:26:08.645Z,3.63
2018-12-22T07:28:36.273Z,3.70
2018-12-22T07:31:03.779Z,4.07
2018-12-22T07:33:31.285Z,4.33
2018-12-22T07:36:00.064Z,4.83
2018-12-22T07:38:28.576Z,3.77
2018-12-22T07:40:56.086Z,3.83
2018-12-22T07:43:23.582Z,4.40
2018-12-22T07:45:52.300Z,4.53
2018-12-22T07:48:19.902Z,4.03
2018-12-22T07:50:49.378Z,3.93
2018-12-22T07:53:16.881Z,4.07
2018-12-22T07:55:44.386Z,4.10
2018-12-22T07:58:12.008Z,4.57
2018-12-22T08:00:39.516Z,4.67
2018-12-22T08:03:07.028Z,4.00
2018-12-22T08:05:38.579Z,4.53
2018-12-22T08:08:04.068Z,4.50
2018-12-22T08:10:31.577Z,4.03
2018-12-22T08:12:59.080Z,4.67
2018-12-22T08:15:26.670Z,4.20
2018-12-22T08:17:54.182Z,5.03
2018-12-22T08:20:21.691Z,4.77
2018-12-22T08:22:49.287Z,4.20
2018-12-22T08:25:16.821Z,4.63
2018-12-22T08:27:44.363Z,4.50
2018-12-22T08:30:11.873Z,5.13
2018-12-22T08:32:39.377Z,3.97
2018-12-22T08:35:06.883Z,5.17
2018-12-22T08:37:35.570Z,5.17
2018-12-22T08:40:03.227Z,5.67
2018-12-22T08:42:30.731Z,4.87
2018-12-22T08:44:58.230Z,4.20
2018-12-22T08:47:25.753Z,4.40
2018-12-22T08:49:53.349Z,4.63
2018-12-22T08:52:20.867Z,4.63
2018-12-22T08:54:48.653Z,5.40
2018-12-22T08:57:16.165Z,4.50
2018-12-22T08:59:43.667Z,4.90
2018-12-22T09:02:11.227Z,4.83
2018-12-22T09:04:38.729Z,4.57
2018-12-22T09:07:06.249Z,4.70
2018-12-22T09:09:34.649Z,4.80
2018-12-22T09:12:02.159Z,4.80
2018-12-22T09:14:29.663Z,4.70
2018-12-22T09:16:57.188Z,5.27
2018-12-22T09:19:24.716Z,4.20
2018-12-22T09:21:52.222Z,4.60
2018-12-22T09:24:19.722Z,4.27
2018-12-22T09:26:47.236Z,4.97
2018-12-22T09:29:14.739Z,4.70
2018-12-22T09:31:42.255Z,6.37
2018-12-22T09:34:13.466Z,5.37
2018-12-22T09:36:39.401Z,5.50
2018-12-22T09:39:07.661Z,5.10
2018-12-22T09:41:35.251Z,4.87
2018-12-22T09:44:02.786Z,4.90
2018-12-22T09:46:30.290Z,4.73
2018-12-22T09:48:57.798Z,5.40
2018-12-22T09:51:25.298Z,6.23
2018-12-22T09:53:52.796Z,6.10
2018-12-22T09:56:21.168Z,6.33
2018-12-22T09:58:48.716Z,5.13
2018-12-22T10:01:16.242Z,5.63
2018-12-22T10:03:44.536Z,4.83
2018-12-22T10:06:12.032Z,4.93
2018-12-22T10:08:39.599Z,5.17
2018-12-22T10:11:07.128Z,4.43
2018-12-22T10:13:34.643Z,4.63
2018-12-22T10:16:02.220Z,4.60
2018-12-22T10:18:29.722Z,4.73
2018-12-22T10:20:57.241Z,5.00
2018-12-22T10:23:24.741Z,4.90
2018-12-22T10:25:52.252Z,4.70
2018-12-22T10:28:19.761Z,5.87
2018-12-22T10:30:47.477Z,4.50
2018-12-22T10:33:14.983Z,4.90
2018-12-22T10:35:42.481Z,4.57
2018-12-22T10:38:10.003Z,5.03
2018-12-22T10:40:37.507Z,5.70
2018-12-22T10:43:05.011Z,5.03
2018-12-22T10:45:32.532Z,5.10
2018-12-22T10:48:00.033Z,4.87
2018-12-22T10:50:27.647Z,4.33
2018-12-22T10:52:55.161Z,5.33
2018-12-22T10:55:22.672Z,5.40
2018-12-22T10:57:50.193Z,4.27
2018-12-22T11:00:17.707Z,5.03
2018-12-22T11:02:45.209Z,5.57
2018-12-22T11:05:12.778Z,4.63
2018-12-22T11:07:40.308Z,4.67
2018-12-22T11:10:11.457Z,5.53
2018-12-22T11:12:38.960Z,5.07
2018-12-22T11:15:07.622Z,4.63
2018-12-22T11:17:35.861Z,3.90
2018-12-22T11:20:05.949Z,5.60
2018-12-22T11:22:33.471Z,5.50
2018-12-22T11:25:01.636Z,4.77
2018-12-22T11:27:29.145Z,4.47
2018-12-22T11:29:56.661Z,4.83
2018-12-22T11:32:24.259Z,5.10
2018-12-22T11:34:51.797Z,4.70
2018-12-22T11:37:19.319Z,4.47
2018-12-22T11:39:46.868Z,4.70
2018-12-22T11:42:14.392Z,5.90
2018-12-22T11:44:41.912Z,5.03
2018-12-22T11:47:11.678Z,4.37
2018-12-22T11:49:39.186Z,4.30
2018-12-22T11:52:06.692Z,4.13
2018-12-22T11:54:34.225Z,4.57
2018-12-22T11:57:01.896Z,4.53
2018-12-22T11:59:29.410Z,4.33
2018-12-22T12:01:56.931Z,4.30
2018-12-22T12:04:24.434Z,4.50
2018-12-22T12:06:51.954Z,4.23
2018-12-22T12:09:19.476Z,3.83
2018-12-22T12:11:46.973Z,5.13
2018-12-22T12:14:16.529Z,3.93
2018-12-22T12:16:45.475Z,4.67
2018-12-22T12:19:14.581Z,3.93
2018-12-22T12:21:42.104Z,4.90
2018-12-22T12:24:10.463Z,4.67
2018-12-22T12:26:38.157Z,4.17
2018-12-22T12:29:05.785Z,4.50
2018-12-22T12:31:33.631Z,4.53
2018-12-22T12:34:01.139Z,4.40
2018-12-22T12:36:28.641Z,4.27
2018-12-22T12:38:56.145Z,4.37
2018-12-22T12:41:23.651Z,4.63
2018-12-22T12:43:51.154Z,4.43
2018-12-22T12:46:19.623Z,3.93
2018-12-22T12:48:47.197Z,4.57
2018-12-22T12:51:14.715Z,4.17
2018-12-22T12:53:42.217Z,3.67
2018-12-22T12:56:09.736Z,3.93
2018-12-22T12:58:37.238Z,4.73
2018-12-22T13:01:04.742Z,3.73
2018-12-22T13:03:32.271Z,3.83
2018-12-22T13:05:59.780Z,4.40
2018-12-22T13:08:27.659Z,4.53
2018-12-22T13:10:55.204Z,3.60
2018-12-22T13:13:40.455Z,4.00
2018-12-22T13:16:07.991Z,3.67
2018-12-22T13:18:35.511Z,4.03
2018-12-22T13:21:05.353Z,4.83
2018-12-22T13:23:32.862Z,4.20
2018-12-22T13:26:00.367Z,3.73
2018-12-22T13:28:27.868Z,4.03
2018-12-22T13:30:55.373Z,3.87
2018-12-22T13:33:23.341Z,3.50
2018-12-22T13:35:51.018Z,3.93
2018-12-22T13:38:18.549Z,3.70
2018-12-22T13:40:46.463Z,3.20
2018-12-22T13:43:14.071Z,3.43
2018-12-22T13:45:41.582Z,4.17
2018-12-22T13:48:09.093Z,4.07
2018-12-22T13:50:37.306Z,3.47
2018-12-22T13:53:05.342Z,3.57
2018-12-22T13:55:32.858Z,3.70
2018-12-22T13:58:00.387Z,3.40
2018-12-22T14:00:29.616Z,3.53
2018-12-22T14:05:59.112Z,3.90
2018-12-22T14:08:26.620Z,4.33
2018-12-22T14:10:54.234Z,3.57
2018-12-22T14:13:21.736Z,3.87
2018-12-22T14:15:50.074Z,4.27
2018-12-22T14:18:28.214Z,4.33
2018-12-22T14:20:55.727Z,3.33
2018-12-22T14:23:26.966Z,3.13
2018-12-22T14:25:54.533Z,3.10
2018-12-22T14:28:22.096Z,3.97
2018-12-22T14:30:49.604Z,3.37
2018-12-22T14:33:17.775Z,3.40
2018-12-22T14:35:45.290Z,3.30
2018-12-22T14:38:12.795Z,3.37
2018-12-22T14:40:40.354Z,3.23
2018-12-22T14:43:07.935Z,3.87
2018-12-22T14:45:35.442Z,3.50
2018-12-22T14:48:02.951Z,3.47
2018-12-22T14:50:30.469Z,2.83
2018-12-22T14:52:57.973Z,3.03
2018-12-22T14:55:26.306Z,3.47
2018-12-22T14:57:56.249Z,4.50
2018-12-22T15:00:23.751Z,3.20
2018-12-22T15:02:51.260Z,3.43
2018-12-22T15:05:18.917Z,3.23
2018-12-22T15:07:46.551Z,2.93
2018-12-22T15:10:14.053Z,2.63
2018-12-22T15:12:41.575Z,3.70
2018-12-22T15:15:10.807Z,3.50
2018-12-22T15:17:41.300Z,3.60
2018-12-22T15:20:17.149Z,3.17
2018-12-22T15:22:44.796Z,3.60
2018-12-22T15:25:12.297Z,3.97
2018-12-22T15:27:39.804Z,4.17
2018-12-22T15:30:11.505Z,3.57
2018-12-22T15:32:44.162Z,2.83
2018-12-22T15:35:08.999Z,3.63
2018-12-22T15:37:36.503Z,3.80
2018-12-22T15:40:09.880Z,3.37
2018-12-22T15:42:37.382Z,3.67
2018-12-22T15:45:10.282Z,3.60
2018-12-22T15:47:37.794Z,3.87
2018-12-22T15:50:10.106Z,4.63
2018-12-22T15:52:38.312Z,3.80
2018-12-22T15:55:08.042Z,4.03
2018-12-22T15:57:35.554Z,3.90
2018-12-22T16:00:04.679Z,4.80
2018-12-22T16:02:32.191Z,3.97
2018-12-22T16:04:59.837Z,4.90
2018-12-22T16:07:29.362Z,4.90
2018-12-22T16:09:56.929Z,5.37
2018-12-22T16:12:24.464Z,6.63
2018-12-22T16:14:51.967Z,5.13
2018-12-22T16:17:19.467Z,6.57
2018-12-22T16:19:46.999Z,6.47
2018-12-22T16:22:14.607Z,4.73
2018-12-22T16:24:42.116Z,5.67
2018-12-22T16:27:09.612Z,4.83
2018-12-22T16:29:37.197Z,4.87
2018-12-22T16:32:04.710Z,5.30
2018-12-22T16:34:32.211Z,5.03
2018-12-22T16:36:59.714Z,4.80
2018-12-22T16:39:27.240Z,5.03
2018-12-22T16:41:54.786Z,5.27
2018-12-22T16:44:22.406Z,4.37
2018-12-22T16:46:50.296Z,5.30
2018-12-22T16:49:17.793Z,4.77
2018-12-22T16:51:45.290Z,5.00
2018-12-22T16:54:12.786Z,6.60
2018-12-22T16:56:40.284Z,4.93
2018-12-22T16:59:07.781Z,5.43
2018-12-22T17:01:38.428Z,5.67
2018-12-22T17:04:05.952Z,5.70
2018-12-22T17:06:33.840Z,6.37
2018-12-22T17:09:01.364Z,5.23
2018-12-22T17:11:28.897Z,5.33
2018-12-22T17:13:56.396Z,5.60
2018-12-22T17:16:23.901Z,5.30
2018-12-22T17:18:51.383Z,5.07
2018-12-22T17:21:20.400Z,5.63
2018-12-22T17:23:51.227Z,6.37
2018-12-22T17:26:20.165Z,5.97
2018-12-22T17:28:47.661Z,6.30
2018-12-22T17:31:15.184Z,5.73
2018-12-22T17:33:42.684Z,5.97
2018-12-22T17:36:10.179Z,5.97
2018-12-22T17:38:37.678Z,6.23
2018-12-22T17:41:05.280Z,7.43
2018-12-22T17:43:33.001Z,6.83
2018-12-22T17:46:00.497Z,6.93
2018-12-22T17:48:27.995Z,7.63
2018-12-22T17:50:55.501Z,7.90
2018-12-22T17:53:23.431Z,7.00
2018-12-22T17:55:51.059Z,7.03
2018-12-22T17:58:18.857Z,6.33
2018-12-22T18:00:46.363Z,6.47
2018-12-22T18:03:14.448Z,7.17
2018-12-22T18:05:42.143Z,6.40
2018-12-22T18:08:09.639Z,7.60
2018-12-22T18:10:37.140Z,6.80
2018-12-22T18:13:04.708Z,7.37
2018-12-22T18:15:32.207Z,6.47
2018-12-22T18:17:59.727Z,6.90
2018-12-22T18:20:27.230Z,8.17
2018-12-22T18:22:54.745Z,7.63
2018-12-22T18:25:22.237Z,6.50
2018-12-22T18:27:51.411Z,6.40
2018-12-22T18:30:18.914Z,6.07
2018-12-22T18:32:46.581Z,6.33
2018-12-22T18:35:14.078Z,6.83
2018-12-22T18:37:41.582Z,6.67
2018-12-22T18:40:15.616Z,5.97
2018-12-22T18:42:44.555Z,7.47
2018-12-22T18:45:12.413Z,8.57
2018-12-22T18:47:41.749Z,7.43
2018-12-22T18:50:25.477Z,7.43
2018-12-22T18:52:53.025Z,7.27
2018-12-22T18:55:20.570Z,7.13
2018-12-22T18:57:49.895Z,9.07
2018-12-22T19:00:21.834Z,8.67
2018-12-22T19:02:50.065Z,9.33
2018-12-22T19:05:18.517Z,9.37
2018-12-22T19:07:46.016Z,8.73
2018-12-22T19:10:17.359Z,8.47
2018-12-22T19:12:44.896Z,8.00
2018-12-22T19:15:12.416Z,7.20
2018-12-22T19:17:39.970Z,7.23
2018-12-22T19:20:12.749Z,6.67
2018-12-22T19:22:40.255Z,6.90
2018-12-22T19:25:08.227Z,6.77
2018-12-22T19:27:35.725Z,7.47
2018-12-22T19:30:04.454Z,8.20
2018-12-22T19:32:32.041Z,9.63
2018-12-22T19:34:59.643Z,7.83
2018-12-22T19:37:27.182Z,9.97
2018-12-22T19:39:54.748Z,8.70
2018-12-22T19:42:22.254Z,8.77
2018-12-22T19:44:49.766Z,7.63
2018-12-22T19:47:17.266Z,8.07
2018-12-22T19:49:44.761Z,8.63
2018-12-22T19:52:12.258Z,7.60
2018-12-22T19:54:39.768Z,8.17
2018-12-22T19:57:07.378Z,8.10
2018-12-22T19:59:34.875Z,9.73
2018-12-22T20:02:02.386Z,8.47
2018-12-22T20:04:29.900Z,7.70
2018-12-22T20:06:57.395Z,8.53
2018-12-22T20:09:24.903Z,8.37
2018-12-22T20:11:53.654Z,8.80
2018-12-22T20:14:21.158Z,7.73
2018-12-22T20:16:48.653Z,11.83
2018-12-22T20:19:16.168Z,7.83
2018-12-22T20:21:43.667Z,8.77
2018-12-22T20:24:11.181Z,8.33
2018-12-22T20:26:38.781Z,9.40
2018-12-22T20:29:06.368Z,9.43
2018-12-22T20:31:34.465Z,7.57
2018-12-22T20:34:10.695Z,7.97
2018-12-22T20:36:31.743Z,8.57
2018-12-22T20:39:01.943Z,8.17
2018-12-22T20:41:29.467Z,9.63
2018-12-22T20:43:57.173Z,9.03
2018-12-22T20:46:24.941Z,9.47
2018-12-22T20:48:52.455Z,10.67
2018-12-22T20:51:20.016Z,10.70
2018-12-22T20:53:47.675Z,10.87
2018-12-22T20:56:15.217Z,10.30
2018-12-22T20:58:42.741Z,8.90
2018-12-22T21:01:10.289Z,8.83
2018-12-22T21:03:39.430Z,8.37
2018-12-22T21:06:12.404Z,7.33
2018-12-22T21:08:39.935Z,7.37
2018-12-22T21:11:07.597Z,7.23
2018-12-22T21:13:35.108Z,7.37
2018-12-22T21:16:02.604Z,6.20
2018-12-22T21:18:30.097Z,6.90
2018-12-22T21:20:57.604Z,9.13
2018-12-22T21:23:26.040Z,7.90
2018-12-22T21:25:54.884Z,7.40
2018-12-22T21:28:22.384Z,7.33
2018-12-22T21:30:49.882Z,8.33
2018-12-22T21:33:17.788Z,8.80
2018-12-22T21:35:53.013Z,9.23
2018-12-22T21:38:14.862Z,7.70
2018-12-22T21:40:42.382Z,8.57
2018-12-22T21:43:09.894Z,9.20
2018-12-22T21:45:37.526Z,8.10
2018-12-22T21:48:05.141Z,8.10
2018-12-22T21:50:32.701Z,9.47
2018-12-22T21:53:00.210Z,8.80
2018-12-22T21:55:27.710Z,9.80
2018-12-22T21:57:55.216Z,9.03
2018-12-22T22:00:22.733Z,8.13
2018-12-22T22:02:50.239Z,8.40
2018-12-22T22:05:17.752Z,8.03
2018-12-22T22:07:45.259Z,8.60
2018-12-22T22:10:12.764Z,8.00
2018-12-22T22:12:40.297Z,7.70
2018-12-22T22:15:07.803Z,8.27
2018-12-22T22:17:35.308Z,7.20
2018-12-22T22:20:03.079Z,8.53
2018-12-22T22:22:30.574Z,8.63
2018-12-22T22:24:58.067Z,8.27
2018-12-22T22:27:25.576Z,8.07
2018-12-22T22:29:53.099Z,8.07
2018-12-22T22:32:20.601Z,7.87
2018-12-22T22:34:48.099Z,8.20
2018-12-22T22:37:15.625Z,8.13
2018-12-22T22:39:43.139Z,7.70
2018-12-22T22:42:10.657Z,8.67
2018-12-22T22:44:38.193Z,7.83
2018-12-22T22:47:05.701Z,7.27
2018-12-22T22:49:33.236Z,7.70
2018-12-22T22:52:00.730Z,8.27
2018-12-22T22:54:28.266Z,6.83
2018-12-22T22:56:55.769Z,7.50
2018-12-22T22:59:23.273Z,7.00
2018-12-22T23:01:50.787Z,7.63
2018-12-22T23:04:18.287Z,6.73
2018-12-22T23:06:45.781Z,8.03
2018-12-22T23:09:13.281Z,7.33
2018-12-22T23:11:40.791Z,7.50
2018-12-22T23:14:08.287Z,7.47
2018-12-22T23:16:35.781Z,7.20
2018-12-22T23:19:03.278Z,7.63
2018-12-22T23:21:30.781Z,7.53
2018-12-22T23:23:58.282Z,6.20
2018-12-22T23:26:25.783Z,7.57
2018-12-22T23:28:53.301Z,6.93
2018-12-22T23:31:20.802Z,7.23
2018-12-22T23:33:48.320Z,7.53
2018-12-22T23:36:15.808Z,6.70
2018-12-22T23:38:43.318Z,7.10
2018-12-22T23:41:10.830Z,7.87
2018-12-22T23:43:38.331Z,7.40
2018-12-22T23:46:05.948Z,6.90
2018-12-22T23:48:33.554Z,7.17
2018-12-22T23:51:01.498Z,7.30
2018-12-22T23:53:28.992Z,6.97
2018-12-22T23:55:56.492Z,7.07
2018-12-22T23:58:23.996Z,6.67
